createdAt,value
2023-01-15T00:02:28.857Z,5.75
2023-01-15T00:04:56.532Z,5.78
2023-01-15T00:07:24.213Z,5.77
2023-01-15T00:09:52.265Z,5.79
2023-01-15T00:12:19.830Z,5.80
2023-01-15T00:14:47.415Z,5.84
2023-01-15T00:17:14.968Z,5.78
2023-01-15T00:19:43.890Z,5.77
2023-01-15T00:22:11.471Z,5.75
2023-01-15T00:24:57.087Z,5.70
2023-01-15T00:27:40.171Z,5.69
2023-01-15T00:30:10.776Z,5.70
2023-01-15T00:32:38.379Z,5.70
2023-01-15T00:35:09.034Z,5.71
2023-01-15T00:37:36.986Z,5.69
2023-01-15T00:40:05.421Z,5.70
2023-01-15T00:42:33.285Z,5.71
2023-01-15T00:45:07.365Z,5.70
2023-01-15T00:47:35.040Z,5.67
2023-01-15T00:50:02.683Z,5.68
2023-01-15T00:52:31.720Z,5.66
2023-01-15T00:54:59.295Z,5.68
2023-01-15T00:57:27.046Z,5.66
2023-01-15T00:59:54.624Z,5.66
2023-01-15T01:02:22.234Z,5.66
2023-01-15T01:04:49.909Z,5.66
2023-01-15T01:07:18.334Z,5.68
2023-01-15T01:09:47.230Z,5.69
2023-01-15T01:12:14.837Z,5.69
2023-01-15T01:14:44.008Z,5.72
2023-01-15T01:17:12.497Z,5.75
2023-01-15T01:19:40.114Z,5.74
2023-01-15T01:22:07.727Z,5.75
2023-01-15T01:24:35.339Z,5.76
2023-01-15T01:27:04.356Z,5.77
2023-01-15T01:29:31.977Z,5.76
2023-01-15T01:32:00.307Z,5.79
2023-01-15T01:34:27.895Z,5.81
2023-01-15T01:36:55.455Z,5.81
2023-01-15T01:39:23.179Z,5.83
2023-01-15T01:41:50.778Z,5.83
2023-01-15T01:45:10.453Z,5.86
2023-01-15T01:47:39.662Z,5.86
2023-01-15T01:50:13.146Z,5.85
2023-01-15T01:52:44.927Z,5.85
2023-01-15T01:55:15.003Z,5.88
2023-01-15T01:57:43.110Z,5.88
2023-01-15T02:00:12.456Z,5.86
2023-01-15T02:02:42.559Z,5.85
2023-01-15T02:05:14.018Z,5.84
2023-01-15T02:07:41.970Z,5.84
2023-01-15T02:10:15.477Z,5.82
2023-01-15T02:12:47.264Z,5.85
2023-01-15T02:15:18.200Z,5.86
2023-01-15T02:17:54.615Z,5.89
2023-01-15T02:20:30.895Z,5.85
2023-01-15T02:23:22.732Z,5.84
2023-01-15T02:26:03.952Z,5.84
2023-01-15T02:28:36.194Z,5.84
2023-01-15T02:31:10.585Z,5.83
2023-01-15T02:33:41.728Z,5.89
2023-01-15T02:36:13.811Z,5.89
2023-01-15T02:38:46.457Z,5.89
2023-01-15T02:41:17.893Z,5.91
2023-01-15T02:43:51.804Z,5.91
2023-01-15T02:46:23.002Z,5.84
2023-01-15T02:48:54.815Z,5.82
2023-01-15T02:51:29.719Z,5.76
2023-01-15T02:54:02.418Z,5.70
2023-01-15T02:56:35.929Z,5.72
2023-01-15T02:59:08.550Z,5.69
2023-01-15T03:01:39.874Z,5.69
2023-01-15T03:04:13.397Z,5.71
2023-01-15T03:06:47.167Z,5.69
2023-01-15T03:09:16.709Z,5.70
2023-01-15T03:11:48.156Z,5.69
2023-01-15T03:14:21.753Z,5.70
2023-01-15T03:16:53.022Z,5.72
2023-01-15T03:19:26.805Z,5.74
2023-01-15T03:21:58.266Z,5.73
2023-01-15T03:24:32.771Z,5.72
2023-01-15T03:27:00.896Z,5.67
2023-01-15T03:29:33.969Z,5.65
2023-01-15T03:32:01.903Z,5.61
2023-01-15T03:34:35.952Z,5.58
2023-01-15T03:37:03.730Z,5.54
2023-01-15T03:39:31.508Z,5.51
2023-01-15T03:42:09.147Z,5.49
2023-01-15T03:44:46.352Z,5.48
2023-01-15T03:47:27.152Z,5.52
2023-01-15T03:50:01.379Z,5.54
2023-01-15T03:52:32.855Z,5.56
2023-01-15T03:55:11.739Z,5.56
2023-01-15T03:57:44.965Z,5.60
2023-01-15T04:00:19.864Z,5.61
2023-01-15T04:02:48.666Z,5.57
2023-01-15T04:05:17.518Z,5.53
2023-01-15T04:07:47.349Z,5.53
2023-01-15T04:10:15.242Z,5.48
2023-01-15T04:12:42.906Z,5.50
2023-01-15T04:15:11.946Z,5.49
2023-01-15T04:17:40.918Z,5.49
2023-01-15T04:20:10.140Z,5.50
2023-01-15T04:22:37.764Z,5.50
2023-01-15T04:25:06.762Z,5.50
2023-01-15T04:27:34.342Z,5.51
2023-01-15T04:30:02.188Z,5.49
2023-01-15T04:32:29.837Z,5.46
2023-01-15T04:34:58.768Z,5.43
2023-01-15T04:37:26.384Z,5.41
2023-01-15T04:39:54.181Z,5.39
2023-01-15T04:42:39.674Z,5.40
2023-01-15T04:45:08.313Z,5.38
2023-01-15T04:47:36.289Z,5.40
2023-01-15T04:50:05.926Z,5.41
2023-01-15T04:52:33.503Z,5.46
2023-01-15T04:55:01.174Z,5.48
2023-01-15T04:57:28.752Z,5.47
2023-01-15T04:59:56.414Z,5.51
2023-01-15T05:02:24.113Z,5.56
2023-01-15T05:04:51.850Z,5.56
2023-01-15T05:07:20.923Z,5.58
2023-01-15T05:09:51.559Z,5.59
2023-01-15T05:12:19.355Z,5.63
2023-01-15T05:14:46.996Z,5.65
2023-01-15T05:17:14.563Z,5.66
2023-01-15T05:19:42.152Z,5.62
2023-01-15T05:22:09.962Z,5.61
2023-01-15T05:24:38.958Z,5.63
2023-01-15T05:27:06.592Z,5.65
2023-01-15T05:29:34.690Z,5.64
2023-01-15T05:32:02.609Z,5.65
2023-01-15T05:34:30.192Z,5.64
2023-01-15T05:36:57.918Z,5.64
2023-01-15T05:39:25.609Z,5.63
2023-01-15T05:41:54.598Z,5.63
2023-01-15T05:44:24.277Z,5.64
2023-01-15T05:46:53.768Z,5.62
2023-01-15T05:49:23.329Z,5.61
2023-01-15T05:51:52.383Z,5.61
2023-01-15T05:54:22.342Z,5.66
2023-01-15T05:56:50.333Z,5.64
2023-01-15T05:59:20.908Z,5.65
2023-01-15T06:01:49.011Z,5.65
2023-01-15T06:04:17.813Z,5.67
2023-01-15T06:06:45.510Z,5.68
2023-01-15T06:09:13.324Z,5.67
2023-01-15T06:11:41.717Z,5.68
2023-01-15T06:14:11.250Z,5.70
2023-01-15T06:16:41.264Z,5.67
2023-01-15T06:19:10.972Z,5.67
2023-01-15T06:21:38.763Z,5.66
2023-01-15T06:24:07.411Z,5.66
2023-01-15T06:26:35.203Z,5.68
2023-01-15T06:29:02.797Z,5.67
2023-01-15T06:31:32.405Z,5.67
2023-01-15T06:34:01.454Z,5.67
2023-01-15T06:36:30.956Z,5.68
2023-01-15T06:38:59.673Z,5.67
2023-01-15T06:41:45.412Z,5.68
2023-01-15T06:44:31.854Z,5.67
2023-01-15T06:47:17.047Z,5.68
2023-01-15T06:49:45.947Z,5.65
2023-01-15T06:52:13.634Z,5.61
2023-01-15T06:54:41.454Z,5.61
2023-01-15T06:57:09.385Z,5.57
2023-01-15T06:59:37.314Z,5.57
2023-01-15T07:02:04.971Z,5.57
2023-01-15T07:04:32.810Z,5.62
2023-01-15T07:07:01.790Z,5.58
2023-01-15T07:09:29.579Z,5.60
2023-01-15T07:11:57.159Z,5.57
2023-01-15T07:14:26.733Z,5.55
2023-01-15T07:16:54.596Z,5.56
2023-01-15T07:19:22.214Z,5.50
2023-01-15T07:21:49.898Z,5.46
2023-01-15T07:24:19.213Z,5.44
2023-01-15T07:26:47.561Z,5.43
2023-01-15T07:29:15.706Z,5.41
2023-01-15T07:31:43.409Z,5.39
2023-01-15T07:34:11.235Z,5.38
2023-01-15T07:36:39.150Z,5.35
2023-01-15T07:39:07.726Z,5.35
2023-01-15T07:41:54.357Z,5.32
2023-01-15T07:44:39.705Z,5.31
2023-01-15T07:47:35.602Z,5.32
2023-01-15T07:50:03.561Z,5.29
2023-01-15T07:52:31.138Z,5.31
2023-01-15T07:54:58.700Z,5.30
2023-01-15T07:57:28.305Z,5.31
2023-01-15T07:59:55.866Z,5.31
2023-01-15T08:02:23.921Z,5.36
2023-01-15T08:04:51.487Z,5.34
2023-01-15T08:07:19.123Z,5.37
2023-01-15T08:09:46.695Z,5.39
2023-01-15T08:12:32.103Z,5.42
2023-01-15T08:15:16.565Z,5.44
2023-01-15T08:17:46.085Z,5.48
2023-01-15T08:20:16.322Z,5.51
2023-01-15T08:22:45.221Z,5.54
2023-01-15T08:25:14.629Z,5.55
2023-01-15T08:27:43.269Z,5.61
2023-01-15T08:30:15.163Z,5.63
2023-01-15T08:32:43.198Z,5.65
2023-01-15T08:35:13.032Z,5.70
2023-01-15T08:37:41.105Z,5.70
2023-01-15T08:40:09.846Z,5.72
2023-01-15T08:42:37.433Z,5.68
2023-01-15T08:45:05.518Z,5.64
2023-01-15T08:47:34.505Z,5.66
2023-01-15T08:50:02.197Z,5.62
2023-01-15T08:52:29.951Z,5.66
2023-01-15T08:54:57.542Z,5.68
2023-01-15T08:57:25.294Z,5.72
2023-01-15T08:59:52.908Z,5.75
2023-01-15T09:02:20.547Z,5.76
2023-01-15T09:04:49.575Z,5.73
2023-01-15T09:07:17.644Z,5.76
2023-01-15T09:09:45.235Z,5.82
2023-01-15T09:12:14.151Z,5.83
2023-01-15T09:14:58.176Z,5.80
2023-01-15T09:17:29.661Z,5.88
2023-01-15T09:19:58.558Z,5.90
2023-01-15T09:22:29.838Z,5.99
2023-01-15T09:24:57.406Z,6.02
2023-01-15T09:27:25.056Z,6.02
2023-01-15T09:29:52.890Z,5.96
2023-01-15T09:32:20.493Z,5.94
2023-01-15T09:34:48.207Z,5.92
2023-01-15T09:37:17.296Z,5.97
2023-01-15T09:39:44.934Z,5.99
2023-01-15T09:42:27.651Z,6.05
2023-01-15T09:45:17.872Z,5.99
2023-01-15T09:48:06.588Z,6.05
2023-01-15T09:50:45.659Z,6.07
2023-01-15T09:53:51.012Z,6.17
2023-01-15T09:56:23.543Z,6.33
2023-01-15T09:58:53.248Z,6.36
2023-01-15T10:01:25.416Z,6.27
2023-01-15T10:04:00.253Z,6.22
2023-01-15T10:06:31.594Z,6.22
2023-01-15T10:09:07.651Z,6.18
2023-01-15T10:12:01.076Z,6.06
2023-01-15T10:14:39.273Z,6.22
2023-01-15T10:17:20.545Z,6.25
2023-01-15T10:19:48.437Z,5.94
2023-01-15T10:22:27.965Z,5.50
2023-01-15T10:24:58.629Z,5.19
2023-01-15T10:27:30.135Z,5.00
2023-01-15T10:30:05.996Z,4.86
2023-01-15T10:32:56.870Z,4.87
2023-01-15T10:35:35.788Z,4.97
2023-01-15T10:38:14.888Z,5.08
2023-01-15T10:41:06.411Z,5.25
2023-01-15T10:43:46.482Z,5.44
2023-01-15T10:46:17.191Z,5.59
2023-01-15T10:48:49.848Z,5.67
2023-01-15T10:51:21.910Z,5.72
2023-01-15T10:53:56.175Z,5.66
2023-01-15T10:56:34.440Z,5.62
2023-01-15T10:59:13.125Z,5.86
2023-01-15T11:01:41.754Z,5.84
2023-01-15T11:04:10.329Z,5.84
2023-01-15T11:06:37.942Z,5.84
2023-01-15T11:09:09.824Z,5.81
2023-01-15T11:12:02.288Z,5.73
2023-01-15T11:14:52.116Z,5.75
2023-01-15T11:17:38.066Z,5.75
2023-01-15T11:20:17.456Z,5.83
2023-01-15T11:22:45.335Z,5.83
2023-01-15T11:25:13.164Z,5.85
2023-01-15T11:27:42.251Z,5.85
2023-01-15T11:30:32.051Z,5.86
2023-01-15T11:33:04.027Z,5.81
2023-01-15T11:35:32.616Z,5.75
2023-01-15T11:38:05.311Z,5.78
2023-01-15T11:40:33.253Z,5.86
2023-01-15T11:43:19.872Z,5.89
2023-01-15T11:46:05.869Z,6.01
2023-01-15T11:49:01.499Z,5.97
2023-01-15T11:51:30.125Z,5.90
2023-01-15T11:54:03.986Z,5.86
2023-01-15T11:56:34.980Z,5.95
2023-01-15T11:59:10.531Z,5.90
2023-01-15T12:01:43.641Z,5.88
2023-01-15T12:04:26.916Z,5.95
2023-01-15T12:06:55.597Z,5.98
2023-01-15T12:09:36.346Z,6.01
2023-01-15T12:12:17.765Z,5.95
2023-01-15T12:15:01.439Z,5.92
2023-01-15T12:17:52.219Z,5.83
2023-01-15T12:20:26.765Z,5.86
2023-01-15T12:23:19.443Z,5.90
2023-01-15T12:25:59.822Z,5.90
2023-01-15T12:28:32.806Z,5.92
2023-01-15T12:31:06.443Z,5.87
2023-01-15T12:33:44.278Z,5.86
2023-01-15T12:36:17.660Z,5.86
2023-01-15T12:38:55.356Z,5.81
2023-01-15T12:41:47.813Z,5.82
2023-01-15T12:44:38.601Z,5.81
2023-01-15T12:47:13.091Z,5.78
2023-01-15T12:49:47.370Z,5.74
2023-01-15T12:52:22.779Z,5.63
2023-01-15T12:55:02.776Z,5.56
2023-01-15T12:57:35.355Z,5.48
2023-01-15T13:00:12.420Z,5.44
2023-01-15T13:02:56.990Z,5.42
2023-01-15T13:05:30.333Z,5.27
2023-01-15T13:08:03.112Z,5.13
2023-01-15T13:10:35.289Z,4.97
2023-01-15T13:13:15.297Z,4.84
2023-01-15T13:15:54.058Z,4.67
2023-01-15T13:18:31.583Z,4.59
2023-01-15T13:21:04.477Z,4.48
2023-01-15T13:23:46.237Z,4.41
2023-01-15T13:26:31.235Z,4.38
2023-01-15T13:29:12.262Z,4.34
2023-01-15T13:31:51.779Z,4.35
2023-01-15T13:34:28.361Z,4.34
2023-01-15T13:37:01.584Z,4.33
2023-01-15T13:39:38.480Z,4.28
2023-01-15T13:42:25.027Z,4.28
2023-01-15T13:44:54.904Z,4.32
2023-01-15T13:47:26.223Z,4.32
2023-01-15T13:49:59.657Z,4.31
2023-01-15T13:52:31.398Z,4.32
2023-01-15T13:55:02.087Z,4.31
2023-01-15T13:57:36.025Z,4.34
2023-01-15T14:00:05.366Z,4.36
2023-01-15T14:02:35.708Z,4.31
2023-01-15T14:05:27.721Z,4.39
2023-01-15T14:07:55.481Z,4.40
2023-01-15T14:10:38.496Z,4.32
2023-01-15T14:13:30.691Z,4.30
2023-01-15T14:16:10.466Z,4.30
2023-01-15T14:19:08.683Z,4.32
2023-01-15T14:21:45.601Z,4.38
2023-01-15T14:24:40.261Z,4.46
2023-01-15T14:27:14.526Z,4.51
2023-01-15T14:30:09.405Z,4.56
2023-01-15T14:32:50.991Z,4.62
2023-01-15T14:35:21.900Z,4.67
2023-01-15T14:37:54.548Z,4.71
2023-01-15T14:40:24.591Z,4.73
2023-01-15T14:43:04.881Z,4.74
2023-01-15T14:45:36.131Z,4.76
2023-01-15T14:48:06.418Z,4.77
2023-01-15T14:50:38.861Z,4.81
2023-01-15T14:53:27.029Z,4.83
2023-01-15T14:55:59.469Z,4.86
2023-01-15T14:58:37.129Z,4.88
2023-01-15T15:01:14.747Z,4.91
2023-01-15T15:03:50.861Z,4.98
2023-01-15T15:06:19.228Z,5.02
2023-01-15T15:08:50.224Z,5.09
2023-01-15T15:11:52.146Z,5.14
2023-01-15T15:14:22.279Z,5.17
2023-01-15T15:16:54.699Z,5.19
2023-01-15T15:19:28.920Z,5.24
2023-01-15T15:22:00.194Z,5.24
2023-01-15T15:24:34.213Z,5.25
2023-01-15T15:27:10.493Z,5.26
2023-01-15T15:29:38.060Z,5.27
2023-01-15T15:32:05.869Z,5.26
2023-01-15T15:34:38.186Z,5.23
2023-01-15T15:37:13.818Z,5.24
2023-01-15T15:39:53.617Z,5.25
2023-01-15T15:42:44.678Z,5.27
2023-01-15T15:45:35.754Z,5.32
2023-01-15T15:48:31.557Z,5.33
2023-01-15T15:50:59.736Z,5.37
2023-01-15T15:53:27.336Z,5.37
2023-01-15T15:55:57.823Z,5.37
2023-01-15T15:58:31.375Z,5.39
2023-01-15T16:00:59.266Z,5.42
2023-01-15T16:03:31.170Z,5.40
2023-01-15T16:06:02.046Z,5.38
2023-01-15T16:08:31.308Z,5.36
2023-01-15T16:11:03.022Z,5.37
2023-01-15T16:13:35.377Z,5.33
2023-01-15T16:16:05.003Z,5.33
2023-01-15T16:18:35.697Z,5.34
2023-01-15T16:21:03.916Z,5.35
2023-01-15T16:23:32.136Z,5.35
2023-01-15T16:26:05.848Z,5.37
2023-01-15T16:28:41.017Z,5.40
2023-01-15T16:31:08.964Z,5.39
2023-01-15T16:33:38.719Z,5.42
2023-01-15T16:36:07.907Z,5.46
2023-01-15T16:38:39.047Z,5.50
2023-01-15T16:41:08.575Z,5.54
2023-01-15T16:43:52.376Z,5.54
2023-01-15T16:46:22.298Z,5.52
2023-01-15T16:48:50.175Z,5.50
2023-01-15T16:51:42.156Z,5.55
2023-01-15T16:54:46.664Z,5.63
2023-01-15T16:57:32.104Z,5.66
2023-01-15T17:00:03.014Z,5.61
2023-01-15T17:02:40.904Z,5.55
2023-01-15T17:05:25.769Z,5.47
2023-01-15T17:07:55.698Z,5.40
2023-01-15T17:10:27.100Z,5.26
2023-01-15T17:12:57.249Z,5.18
2023-01-15T17:15:40.433Z,5.15
2023-01-15T17:18:29.149Z,5.09
2023-01-15T17:20:57.398Z,5.05
2023-01-15T17:23:28.915Z,5.07
2023-01-15T17:25:57.959Z,5.03
2023-01-15T17:28:26.915Z,5.00
2023-01-15T17:30:59.506Z,4.95
2023-01-15T17:33:27.285Z,4.96
2023-01-15T17:35:56.588Z,4.97
2023-01-15T17:38:24.211Z,4.99
2023-01-15T17:40:52.981Z,4.98
2023-01-15T17:43:20.602Z,4.99
2023-01-15T17:45:49.929Z,4.98
2023-01-15T17:48:18.336Z,4.98
2023-01-15T17:50:46.168Z,4.95
2023-01-15T17:53:13.761Z,4.93
2023-01-15T17:55:59.035Z,4.90
2023-01-15T17:58:44.137Z,4.91
2023-01-15T18:01:36.297Z,4.91
2023-01-15T18:04:21.774Z,4.91
2023-01-15T18:06:53.140Z,4.90
2023-01-15T18:09:23.590Z,4.90
2023-01-15T18:11:51.157Z,4.91
2023-01-15T18:14:18.857Z,4.91
2023-01-15T18:16:47.919Z,4.91
2023-01-15T18:19:15.513Z,4.91
2023-01-15T18:21:43.316Z,4.91
2023-01-15T18:24:12.103Z,4.91
2023-01-15T18:26:41.375Z,4.95
2023-01-15T18:29:11.405Z,4.99
2023-01-15T18:31:39.954Z,5.04
2023-01-15T18:34:09.179Z,5.04
2023-01-15T18:36:36.760Z,5.08
2023-01-15T18:39:06.915Z,5.09
2023-01-15T18:41:54.103Z,5.10
2023-01-15T18:44:41.742Z,5.11
2023-01-15T18:47:13.254Z,5.13
2023-01-15T18:49:43.455Z,5.12
2023-01-15T18:52:30.541Z,5.12
2023-01-15T18:54:58.175Z,5.10
2023-01-15T18:57:25.875Z,5.10
2023-01-15T18:59:53.688Z,5.08
2023-01-15T19:02:22.778Z,5.11
2023-01-15T19:04:52.056Z,5.12
2023-01-15T19:07:19.756Z,5.13
2023-01-15T19:09:47.365Z,5.14
2023-01-15T19:12:16.953Z,5.13
2023-01-15T19:15:02.006Z,5.12
2023-01-15T19:17:43.484Z,5.11
2023-01-15T19:20:15.022Z,5.06
2023-01-15T19:23:05.032Z,5.05
2023-01-15T19:25:38.292Z,5.06
2023-01-15T19:28:07.272Z,5.03
2023-01-15T19:30:35.581Z,5.06
2023-01-15T19:33:03.175Z,5.02
2023-01-15T19:35:32.310Z,5.09
2023-01-15T19:38:00.006Z,5.13
2023-01-15T19:40:28.662Z,5.17
2023-01-15T19:43:14.377Z,5.24
2023-01-15T19:46:02.240Z,5.30
2023-01-15T19:48:47.325Z,5.31
2023-01-15T19:51:16.716Z,5.33
2023-01-15T19:53:44.301Z,5.36
2023-01-15T19:56:11.958Z,5.37
2023-01-15T19:58:39.644Z,5.38
2023-01-15T20:01:14.056Z,5.42
2023-01-15T20:03:41.804Z,5.45
2023-01-15T20:06:09.788Z,5.49
2023-01-15T20:08:38.750Z,5.49
2023-01-15T20:11:09.341Z,5.51
2023-01-15T20:13:53.358Z,5.51
2023-01-15T20:16:25.230Z,5.50
2023-01-15T20:18:54.943Z,5.51
2023-01-15T20:21:22.479Z,5.51
2023-01-15T20:23:51.667Z,5.50
2023-01-15T20:26:19.298Z,5.45
2023-01-15T20:28:47.722Z,5.35
2023-01-15T20:31:17.165Z,5.26
2023-01-15T20:33:44.921Z,5.20
2023-01-15T20:36:12.485Z,5.15
2023-01-15T20:38:40.123Z,5.10
2023-01-15T20:41:27.777Z,5.05
2023-01-15T20:44:12.871Z,4.99
2023-01-15T20:46:40.441Z,4.98
2023-01-15T20:49:26.980Z,4.95
2023-01-15T20:51:55.177Z,4.97
2023-01-15T20:54:23.734Z,5.00
2023-01-15T20:56:52.765Z,5.06
2023-01-15T20:59:20.480Z,5.07
2023-01-15T21:01:48.200Z,5.08
2023-01-15T21:04:16.048Z,5.10
2023-01-15T21:06:43.826Z,5.12
2023-01-15T21:09:11.479Z,5.13
2023-01-15T21:11:39.389Z,5.15
2023-01-15T21:14:08.406Z,5.17
2023-01-15T21:16:36.077Z,5.19
2023-01-15T21:19:04.832Z,5.21
2023-01-15T21:21:32.517Z,5.27
2023-01-15T21:24:01.567Z,5.29
2023-01-15T21:26:30.945Z,5.29
2023-01-15T21:28:58.777Z,5.25
2023-01-15T21:31:27.995Z,5.10
2023-01-15T21:33:56.460Z,5.07
2023-01-15T21:36:25.331Z,5.05
2023-01-15T21:38:54.303Z,5.03
2023-01-15T21:41:43.772Z,5.03
2023-01-15T21:44:32.558Z,5.05
2023-01-15T21:47:03.495Z,5.01
2023-01-15T21:49:33.219Z,5.01
2023-01-15T21:52:01.238Z,4.97
2023-01-15T21:54:29.163Z,4.95
2023-01-15T21:56:57.226Z,4.97
2023-01-15T21:59:25.404Z,5.01
2023-01-15T22:01:54.751Z,5.03
2023-01-15T22:04:25.338Z,5.09
2023-01-15T22:06:53.123Z,5.14
2023-01-15T22:09:21.659Z,5.17
2023-01-15T22:11:49.872Z,5.15
2023-01-15T22:14:20.815Z,5.10
2023-01-15T22:16:49.800Z,5.05
2023-01-15T22:19:19.776Z,5.03
2023-01-15T22:21:49.144Z,4.98
2023-01-15T22:24:18.887Z,4.90
2023-01-15T22:26:53.687Z,4.87
2023-01-15T22:29:21.852Z,4.81
2023-01-15T22:31:49.463Z,4.80
2023-01-15T22:34:17.200Z,4.76
2023-01-15T22:36:44.848Z,4.73
2023-01-15T22:39:13.992Z,4.67
2023-01-15T22:41:59.441Z,4.61
2023-01-15T22:44:27.087Z,4.56
2023-01-15T22:46:55.165Z,4.57
2023-01-15T22:49:23.180Z,4.57
2023-01-15T22:51:52.071Z,4.56
2023-01-15T22:54:21.623Z,4.61
2023-01-15T22:56:49.364Z,4.60
2023-01-15T22:59:17.549Z,4.62
2023-01-15T23:01:45.283Z,4.55
2023-01-15T23:04:15.168Z,4.53
2023-01-15T23:06:43.940Z,4.54
2023-01-15T23:09:12.917Z,4.51
2023-01-15T23:11:42.001Z,4.50
2023-01-15T23:14:12.241Z,4.50
2023-01-15T23:16:39.934Z,4.52
2023-01-15T23:19:07.531Z,4.55
2023-01-15T23:21:35.746Z,4.59
2023-01-15T23:24:03.829Z,4.61
2023-01-15T23:26:33.615Z,4.64
2023-01-15T23:29:03.021Z,4.62
2023-01-15T23:31:30.941Z,4.61
2023-01-15T23:33:58.986Z,4.62
2023-01-15T23:36:26.976Z,4.63
2023-01-15T23:38:54.947Z,4.59
2023-01-15T23:41:45.729Z,4.61
2023-01-15T23:44:37.460Z,4.64
2023-01-15T23:47:05.888Z,4.67
2023-01-15T23:49:33.549Z,4.70
2023-01-15T23:52:01.900Z,4.69
2023-01-15T23:54:31.274Z,4.70
2023-01-15T23:57:00.640Z,4.66
2023-01-15T23:59:30.266Z,4.62
